KOJC

Johnson County Executive Airport

Olathe, Kansas, USA
METAR KOJC 151153Z AUTO 16006KT 10SM CLR M07/M09 A3014 RMK AO2 SLP219 T10721094 11050 21072 56021
Observed Flight Rules
Nov-15 @ 11:53 UTC (49 minutes ago) Visual Flight Rules
Wind Visibility Clouds
160° at 6 knots 10 miles
  • Clear skies
Temperatures Readings
Current -7°C / 19°F
Dewpoint -9°C / 16°F
Humidity 86%
Altimeter 30.14" Hg
Pressure 1021.9 hPa
Elevation 326
METAR KOJC 151153Z AUTO 16006KT 10SM CLR M07/M09 A3014 RMK AO2 SLP219 T10721094 11050 21072 56021
Observed Flight Rules
Nov-15 @ 11:53 UTC
(49 minutes ago)
VFR
Wind Visibility
160° at 6 knots 10 miles
Clouds
  • Clear skies
Temperature Dewpoint
-7°C / 19°F -9°C / 16°F
Humidity Altimeter Pressure
86% 30.14" Hg 1021.9 hPa